sensor_id;sensor_type;location;lat;lon;timestamp;pressure;altitude;pressure_sealevel;temperature;humidity
31092;BME280;67728;53.122;12.776;2023-03-16T00:01:03;101166.63;;;-0.73;86.04
31092;BME280;67728;53.122;12.776;2023-03-16T00:02:44;101168.13;;;-0.78;86.30
31092;BME280;67728;53.122;12.776;2023-03-16T00:04:16;101184.41;;;-0.74;86.24
31092;BME280;67728;53.122;12.776;2023-03-16T00:05:48;101176.53;;;-0.80;86.26
31092;BME280;67728;53.122;12.776;2023-03-16T00:07:19;101179.09;;;-0.80;86.30
31092;BME280;67728;53.122;12.776;2023-03-16T00:08:51;101182.34;;;-0.84;86.25
31092;BME280;67728;53.122;12.776;2023-03-16T00:10:28;101182.53;;;-0.78;86.49
31092;BME280;67728;53.122;12.776;2023-03-16T00:12:00;101184.81;;;-0.86;86.17
31092;BME280;67728;53.122;12.776;2023-03-16T00:13:33;101183.53;;;-0.97;86.31
31092;BME280;67728;53.122;12.776;2023-03-16T00:15:06;101183.66;;;-0.94;86.27
31092;BME280;67728;53.122;12.776;2023-03-16T00:16:37;101183.78;;;-0.91;86.59
31092;BME280;67728;53.122;12.776;2023-03-16T00:18:10;101183.13;;;-0.85;86.27
31092;BME280;67728;53.122;12.776;2023-03-16T00:20:13;101184.69;;;-0.89;86.41
31092;BME280;67728;53.122;12.776;2023-03-16T00:21:44;101184.00;;;-0.85;85.94
31092;BME280;67728;53.122;12.776;2023-03-16T00:23:16;101184.00;;;-0.85;86.24
31092;BME280;67728;53.122;12.776;2023-03-16T00:24:48;101189.16;;;-0.83;86.25
31092;BME280;67728;53.122;12.776;2023-03-16T00:26:20;101189.38;;;-0.77;86.14
31092;BME280;67728;53.122;12.776;2023-03-16T00:27:51;101186.72;;;-0.80;85.43
31092;BME280;67728;53.122;12.776;2023-03-16T00:29:23;101189.56;;;-0.95;85.85
31092;BME280;67728;53.122;12.776;2023-03-16T00:30:55;101191.88;;;-1.01;86.22
31092;BME280;67728;53.122;12.776;2023-03-16T00:32:29;101187.72;;;-0.99;86.56
31092;BME280;67728;53.122;12.776;2023-03-16T00:34:03;101182.84;;;-0.93;87.24
31092;BME280;67728;53.122;12.776;2023-03-16T00:35:35;101192.91;;;-0.96;86.32
31092;BME280;67728;53.122;12.776;2023-03-16T00:37:07;101189.66;;;-0.92;86.62
31092;BME280;67728;53.122;12.776;2023-03-16T00:38:40;101190.41;;;-0.94;86.45
31092;BME280;67728;53.122;12.776;2023-03-16T00:40:14;101188.00;;;-0.91;86.50
31092;BME280;67728;53.122;12.776;2023-03-16T00:41:46;101191.38;;;-0.92;86.56
31092;BME280;67728;53.122;12.776;2023-03-16T00:43:17;101190.53;;;-0.91;86.60
31092;BME280;67728;53.122;12.776;2023-03-16T00:44:49;101186.03;;;-0.98;86.44
31092;BME280;67728;53.122;12.776;2023-03-16T00:46:26;101192.03;;;-0.96;86.29
31092;BME280;67728;53.122;12.776;2023-03-16T00:47:58;101191.69;;;-1.05;86.56
31092;BME280;67728;53.122;12.776;2023-03-16T00:49:33;101189.03;;;-1.08;86.38
31092;BME280;67728;53.122;12.776;2023-03-16T00:51:07;101189.97;;;-1.06;86.72
31092;BME280;67728;53.122;12.776;2023-03-16T00:52:39;101190.72;;;-1.09;86.21
31092;BME280;67728;53.122;12.776;2023-03-16T00:54:11;101192.56;;;-1.05;86.71
31092;BME280;67728;53.122;12.776;2023-03-16T00:55:42;101193.81;;;-1.16;86.35
31092;BME280;67728;53.122;12.776;2023-03-16T00:57:16;101197.31;;;-1.14;86.92
31092;BME280;67728;53.122;12.776;2023-03-16T00:58:48;101188.81;;;-1.14;86.82
31092;BME280;67728;53.122;12.776;2023-03-16T01:00:20;101192.25;;;-1.12;86.52
31092;BME280;67728;53.122;12.776;2023-03-16T01:01:54;101193.00;;;-1.15;86.29
31092;BME280;67728;53.122;12.776;2023-03-16T01:03:25;101194.06;;;-1.10;86.80
31092;BME280;67728;53.122;12.776;2023-03-16T01:04:58;101194.94;;;-1.09;86.61
31092;BME280;67728;53.122;12.776;2023-03-16T01:06:31;101195.69;;;-1.12;87.04
31092;BME280;67728;53.122;12.776;2023-03-16T01:08:03;101194.00;;;-1.11;87.13
31092;BME280;67728;53.122;12.776;2023-03-16T01:09:34;101196.59;;;-1.10;86.52
31092;BME280;67728;53.122;12.776;2023-03-16T01:11:08;101193.13;;;-1.12;86.80
31092;BME280;67728;53.122;12.776;2023-03-16T01:12:40;101201.53;;;-1.14;87.00
31092;BME280;67728;53.122;12.776;2023-03-16T01:14:14;101196.47;;;-1.13;86.99
31092;BME280;67728;53.122;12.776;2023-03-16T01:15:46;101193.19;;;-1.10;86.56
31092;BME280;67728;53.122;12.776;2023-03-16T01:17:19;101193.19;;;-1.10;86.21
31092;BME280;67728;53.122;12.776;2023-03-16T01:18:51;101204.25;;;-1.10;87.13
31092;BME280;67728;53.122;12.776;2023-03-16T01:20:25;101198.72;;;-1.21;86.63
31092;BME280;67728;53.122;12.776;2023-03-16T01:21:57;101193.66;;;-1.21;86.49
31092;BME280;67728;53.122;12.776;2023-03-16T01:23:28;101201.56;;;-1.13;86.86
31092;BME280;67728;53.122;12.776;2023-03-16T01:25:00;101199.09;;;-1.11;86.81
31092;BME280;67728;53.122;12.776;2023-03-16T01:26:31;101203.19;;;-1.15;86.38
31092;BME280;67728;53.122;12.776;2023-03-16T01:28:03;101197.69;;;-1.26;86.45
31092;BME280;67728;53.122;12.776;2023-03-16T01:29:35;101198.56;;;-1.25;86.81
31092;BME280;67728;53.122;12.776;2023-03-16T01:31:07;101205.31;;;-1.26;86.51
31092;BME280;67728;53.122;12.776;2023-03-16T01:32:39;101202.91;;;-1.23;86.86
31092;BME280;67728;53.122;12.776;2023-03-16T01:34:12;101208.16;;;-1.18;86.30
31092;BME280;67728;53.122;12.776;2023-03-16T01:35:52;101203.16;;;-1.16;86.59
31092;BME280;67728;53.122;12.776;2023-03-16T01:37:24;101198.06;;;-1.16;86.31
31092;BME280;67728;53.122;12.776;2023-03-16T01:38:55;101198.69;;;-1.22;86.20
31092;BME280;67728;53.122;12.776;2023-03-16T01:40:27;101188.94;;;-1.32;86.33
31092;BME280;67728;53.122;12.776;2023-03-16T01:41:57;101192.47;;;-1.29;86.74
31092;BME280;67728;53.122;12.776;2023-03-16T01:43:31;101192.59;;;-1.26;86.77
31092;BME280;67728;53.122;12.776;2023-03-16T01:45:03;101194.56;;;-1.18;87.07
31092;BME280;67728;53.122;12.776;2023-03-16T01:46:35;101198.06;;;-1.16;86.37
31092;BME280;67728;53.122;12.776;2023-03-16T01:48:06;101198.91;;;-1.16;85.53
31092;BME280;67728;53.122;12.776;2023-03-16T01:49:38;101192.97;;;-1.16;85.92
31092;BME280;67728;53.122;12.776;2023-03-16T01:51:16;101202.28;;;-1.17;86.33
31092;BME280;67728;53.122;12.776;2023-03-16T01:52:50;101187.25;;;-1.11;86.40
31092;BME280;67728;53.122;12.776;2023-03-16T01:54:25;101192.34;;;-1.11;86.37
31092;BME280;67728;53.122;12.776;2023-03-16T01:55:59;101189.59;;;-1.15;85.98
31092;BME280;67728;53.122;12.776;2023-03-16T01:57:34;101187.25;;;-1.11;86.30
31092;BME280;67728;53.122;12.776;2023-03-16T01:59:11;101188.16;;;-1.09;86.04
31092;BME280;67728;53.122;12.776;2023-03-16T02:00:44;101188.84;;;-1.13;86.04
31092;BME280;67728;53.122;12.776;2023-03-16T02:02:19;101190.22;;;-1.21;86.12
31092;BME280;67728;53.122;12.776;2023-03-16T02:03:54;101196.06;;;-1.24;86.34
31092;BME280;67728;53.122;12.776;2023-03-16T02:05:31;101192.78;;;-1.21;86.60
31092;BME280;67728;53.122;12.776;2023-03-16T02:07:06;101185.75;;;-1.27;86.39
31092;BME280;67728;53.122;12.776;2023-03-16T02:08:39;101184.34;;;-1.20;85.84
31092;BME280;67728;53.122;12.776;2023-03-16T02:10:13;101186.09;;;-1.40;85.67
31092;BME280;67728;53.122;12.776;2023-03-16T02:11:45;101187.13;;;-1.35;86.63
31092;BME280;67728;53.122;12.776;2023-03-16T02:13:16;101187.25;;;-1.32;86.58
31092;BME280;67728;53.122;12.776;2023-03-16T02:14:49;101185.72;;;-1.28;85.91
31092;BME280;67728;53.122;12.776;2023-03-16T02:16:21;101187.81;;;-1.18;86.06
31092;BME280;67728;53.122;12.776;2023-03-16T02:17:52;101175.84;;;-1.21;86.01
31092;BME280;67728;53.122;12.776;2023-03-16T02:19:34;101176.69;;;-1.20;86.19
31092;BME280;67728;53.122;12.776;2023-03-16T02:21:12;101185.22;;;-1.19;86.12
31092;BME280;67728;53.122;12.776;2023-03-16T02:22:49;101185.00;;;-1.24;85.59
31092;BME280;67728;53.122;12.776;2023-03-16T02:24:23;101177.47;;;-1.23;85.75
31092;BME280;67728;53.122;12.776;2023-03-16T02:26:00;101180.78;;;-1.24;85.69
31092;BME280;67728;53.122;12.776;2023-03-16T02:27:38;101189.88;;;-1.30;86.10
31092;BME280;67728;53.122;12.776;2023-03-16T02:29:22;101186.47;;;-1.31;86.25
31092;BME280;67728;53.122;12.776;2023-03-16T02:30:59;101190.50;;;-1.36;86.12
31092;BME280;67728;53.122;12.776;2023-03-16T02:32:31;101187.38;;;-1.29;85.07
31092;BME280;67728;53.122;12.776;2023-03-16T02:34:03;101191.72;;;-1.26;85.81
31092;BME280;67728;53.122;12.776;2023-03-16T02:35:36;101194.34;;;-1.25;85.72
31092;BME280;67728;53.122;12.776;2023-03-16T02:37:07;101192.59;;;-1.26;86.41
31092;BME280;67728;53.122;12.776;2023-03-16T02:38:39;101188.63;;;-1.19;86.27
31092;BME280;67728;53.122;12.776;2023-03-16T02:40:20;101194.53;;;-1.20;86.24
31092;BME280;67728;53.122;12.776;2023-03-16T02:41:52;101193.47;;;-1.25;85.51
31092;BME280;67728;53.122;12.776;2023-03-16T02:43:25;101193.59;;;-1.22;85.66
31092;BME280;67728;53.122;12.776;2023-03-16T02:44:59;101193.28;;;-1.30;85.19
31092;BME280;67728;53.122;12.776;2023-03-16T02:46:32;101192.34;;;-1.32;85.49
31092;BME280;67728;53.122;12.776;2023-03-16T02:48:09;101190.81;;;-1.28;85.58
31092;BME280;67728;53.122;12.776;2023-03-16T02:49:44;101197.66;;;-1.27;85.60
31092;BME280;67728;53.122;12.776;2023-03-16T02:51:16;101193.41;;;-1.27;85.70
31092;BME280;67728;53.122;12.776;2023-03-16T02:52:48;101198.47;;;-1.27;85.41
31092;BME280;67728;53.122;12.776;2023-03-16T02:54:19;101200.22;;;-1.26;85.54
31092;BME280;67728;53.122;12.776;2023-03-16T02:55:51;101201.78;;;-1.29;85.35
31092;BME280;67728;53.122;12.776;2023-03-16T02:57:21;101196.81;;;-1.26;85.72
31092;BME280;67728;53.122;12.776;2023-03-16T02:58:53;101201.09;;;-1.25;85.43
31092;BME280;67728;53.122;12.776;2023-03-16T03:00:26;101202.03;;;-1.23;85.68
31092;BME280;67728;53.122;12.776;2023-03-16T03:02:00;101201.28;;;-1.21;85.33
31092;BME280;67728;53.122;12.776;2023-03-16T03:03:32;101205.50;;;-1.21;85.59
31092;BME280;67728;53.122;12.776;2023-03-16T03:05:04;101198.81;;;-1.19;85.22
31092;BME280;67728;53.122;12.776;2023-03-16T03:06:36;101202.31;;;-1.15;84.63
31092;BME280;67728;53.122;12.776;2023-03-16T03:08:08;101210.88;;;-1.13;85.04
31092;BME280;67728;53.122;12.776;2023-03-16T03:09:40;101204.13;;;-1.13;84.56
31092;BME280;67728;53.122;12.776;2023-03-16T03:11:12;101209.28;;;-1.11;84.78
31092;BME280;67728;53.122;12.776;2023-03-16T03:12:43;101199.22;;;-1.08;84.70
31092;BME280;67728;53.122;12.776;2023-03-16T03:14:18;101205.16;;;-1.08;84.69
31092;BME280;67728;53.122;12.776;2023-03-16T03:15:50;101207.81;;;-1.05;84.33
31092;BME280;67728;53.122;12.776;2023-03-16T03:17:23;101211.50;;;-0.98;84.19
31092;BME280;67728;53.122;12.776;2023-03-16T03:18:59;101213.31;;;-0.94;84.23
31092;BME280;67728;53.122;12.776;2023-03-16T03:20:30;101204.78;;;-0.96;83.89
31092;BME280;67728;53.122;12.776;2023-03-16T03:22:03;101207.28;;;-0.98;84.00
31092;BME280;67728;53.122;12.776;2023-03-16T03:23:36;101208.13;;;-0.97;84.15
31092;BME280;67728;53.122;12.776;2023-03-16T03:25:08;101204.72;;;-0.98;83.65
31092;BME280;67728;53.122;12.776;2023-03-16T03:26:40;101209.94;;;-0.95;83.37
31092;BME280;67728;53.122;12.776;2023-03-16T03:28:14;101206.53;;;-0.95;83.80
31092;BME280;67728;53.122;12.776;2023-03-16T03:29:46;101207.28;;;-0.98;83.76
31092;BME280;67728;53.122;12.776;2023-03-16T03:31:19;101205.56;;;-0.97;83.65
31092;BME280;67728;53.122;12.776;2023-03-16T03:32:52;101211.66;;;-0.94;83.43
31092;BME280;67728;53.122;12.776;2023-03-16T03:34:24;101211.63;;;-0.95;83.56
31092;BME280;67728;53.122;12.776;2023-03-16T03:35:57;101207.41;;;-0.95;83.46
31092;BME280;67728;53.122;12.776;2023-03-16T03:37:29;101215.13;;;-0.92;83.21
31092;BME280;67728;53.122;12.776;2023-03-16T03:39:00;101219.28;;;-0.94;82.95
31092;BME280;67728;53.122;12.776;2023-03-16T03:40:35;101220.13;;;-0.95;82.96
31092;BME280;67728;53.122;12.776;2023-03-16T03:42:07;101219.28;;;-0.94;83.00
31092;BME280;67728;53.122;12.776;2023-03-16T03:43:38;101225.88;;;-0.99;83.26
31092;BME280;67728;53.122;12.776;2023-03-16T03:45:11;101223.06;;;-1.06;83.45
31092;BME280;67728;53.122;12.776;2023-03-16T03:46:42;101230.69;;;-1.06;83.62
31092;BME280;67728;53.122;12.776;2023-03-16T03:48:16;101223.09;;;-1.05;83.35
31092;BME280;67728;53.122;12.776;2023-03-16T03:49:48;101219.00;;;-1.01;83.47
31092;BME280;67728;53.122;12.776;2023-03-16T03:51:20;101222.00;;;-1.11;83.60
31092;BME280;67728;53.122;12.776;2023-03-16T03:52:52;101232.94;;;-1.14;83.43
31092;BME280;67728;53.122;12.776;2023-03-16T03:54:22;101223.09;;;-1.27;83.72
31092;BME280;67728;53.122;12.776;2023-03-16T03:55:54;101229.88;;;-1.26;83.91
31092;BME280;67728;53.122;12.776;2023-03-16T03:57:26;101234.34;;;-1.21;83.74
31092;BME280;67728;53.122;12.776;2023-03-16T03:58:56;101230.59;;;-1.30;84.37
31092;BME280;67728;53.122;12.776;2023-03-16T04:00:28;101227.84;;;-1.35;84.58
31092;BME280;67728;53.122;12.776;2023-03-16T04:02:00;101230.81;;;-1.45;84.48
31092;BME280;67728;53.122;12.776;2023-03-16T04:03:33;101237.03;;;-1.38;83.74
31092;BME280;67728;53.122;12.776;2023-03-16T04:05:06;101233.53;;;-1.40;83.96
31092;BME280;67728;53.122;12.776;2023-03-16T04:06:36;101240.38;;;-1.39;83.72
31092;BME280;67728;53.122;12.776;2023-03-16T04:08:08;101235.28;;;-1.39;84.10
31092;BME280;67728;53.122;12.776;2023-03-16T04:09:40;101237.78;;;-1.41;84.04
31092;BME280;67728;53.122;12.776;2023-03-16T04:11:12;101240.56;;;-1.55;83.71
31092;BME280;67728;53.122;12.776;2023-03-16T04:12:44;101246.72;;;-1.50;83.52
31092;BME280;67728;53.122;12.776;2023-03-16T04:14:14;101246.44;;;-1.56;84.50
31092;BME280;67728;53.122;12.776;2023-03-16T04:15:46;101244.28;;;-1.47;84.25
31092;BME280;67728;53.122;12.776;2023-03-16T04:17:17;101238.41;;;-1.46;84.14
31092;BME280;67728;53.122;12.776;2023-03-16T04:18:50;101238.03;;;-1.55;84.53
31092;BME280;67728;53.122;12.776;2023-03-16T04:20:23;101241.69;;;-1.49;83.87
31092;BME280;67728;53.122;12.776;2023-03-16T04:21:55;101238.94;;;-1.53;84.16
31092;BME280;67728;53.122;12.776;2023-03-16T04:23:27;101245.69;;;-1.54;84.16
31092;BME280;67728;53.122;12.776;2023-03-16T04:24:59;101246.44;;;-1.56;84.24
31092;BME280;67728;53.122;12.776;2023-03-16T04:26:32;101253.75;;;-1.64;83.95
31092;BME280;67728;53.122;12.776;2023-03-16T04:28:04;101248.38;;;-1.91;84.67
31092;BME280;67728;53.122;12.776;2023-03-16T04:29:36;101253.78;;;-1.83;84.25
31092;BME280;67728;53.122;12.776;2023-03-16T04:31:09;101256.31;;;-1.83;84.81
31092;BME280;67728;53.122;12.776;2023-03-16T04:32:41;101251.97;;;-1.86;84.48
31092;BME280;67728;53.122;12.776;2023-03-16T04:34:13;101254.47;;;-1.87;84.80
31092;BME280;67728;53.122;12.776;2023-03-16T04:35:45;101251.09;;;-1.86;84.97
31092;BME280;67728;53.122;12.776;2023-03-16T04:37:16;101253.59;;;-1.88;84.48
31092;BME280;67728;53.122;12.776;2023-03-16T04:38:48;101254.38;;;-1.89;84.67
31092;BME280;67728;53.122;12.776;2023-03-16T04:40:20;101251.09;;;-1.86;85.42
31092;BME280;67728;53.122;12.776;2023-03-16T04:41:51;101252.84;;;-1.85;85.37
31092;BME280;67728;53.122;12.776;2023-03-16T04:43:23;101252.91;;;-1.84;85.27
31092;BME280;67728;53.122;12.776;2023-03-16T04:44:54;101255.66;;;-1.79;85.37
31092;BME280;67728;53.122;12.776;2023-03-16T04:46:26;101256.66;;;-1.75;85.04
31092;BME280;67728;53.122;12.776;2023-03-16T04:47:58;101255.91;;;-1.73;85.13
31092;BME280;67728;53.122;12.776;2023-03-16T04:49:32;101257.34;;;-1.79;84.63
31092;BME280;67728;53.122;12.776;2023-03-16T04:51:04;101264.38;;;-1.93;85.09
31092;BME280;67728;53.122;12.776;2023-03-16T04:52:35;101255.09;;;-1.93;85.14
31092;BME280;67728;53.122;12.776;2023-03-16T04:54:07;101252.59;;;-1.91;84.49
31092;BME280;67728;53.122;12.776;2023-03-16T04:55:39;101246.31;;;-1.99;84.69
31092;BME280;67728;53.122;12.776;2023-03-16T04:57:11;101251.53;;;-1.96;85.30
31092;BME280;67728;53.122;12.776;2023-03-16T04:58:42;101250.59;;;-1.98;85.43
31092;BME280;67728;53.122;12.776;2023-03-16T05:00:14;101251.13;;;-2.05;84.72
31092;BME280;67728;53.122;12.776;2023-03-16T05:01:50;101250.38;;;-2.03;86.18
31092;BME280;67728;53.122;12.776;2023-03-16T05:03:22;101251.25;;;-2.02;86.15
31092;BME280;67728;53.122;12.776;2023-03-16T05:04:55;101253.47;;;-2.10;85.75
31092;BME280;67728;53.122;12.776;2023-03-16T05:06:27;101258.63;;;-2.08;86.23
31092;BME280;67728;53.122;12.776;2023-03-16T05:08:00;101254.25;;;-2.11;85.78
31092;BME280;67728;53.122;12.776;2023-03-16T05:09:31;101250.00;;;-2.12;85.41
31092;BME280;67728;53.122;12.776;2023-03-16T05:11:03;101260.03;;;-2.15;85.74
31092;BME280;67728;53.122;12.776;2023-03-16T05:12:34;101247.19;;;-2.18;86.36
31092;BME280;67728;53.122;12.776;2023-03-16T05:14:06;101256.56;;;-2.17;85.49
31092;BME280;67728;53.122;12.776;2023-03-16T05:15:38;101257.50;;;-2.15;85.22
31092;BME280;67728;53.122;12.776;2023-03-16T05:17:10;101263.91;;;-2.23;85.77
31092;BME280;67728;53.122;12.776;2023-03-16T05:18:44;101263.31;;;-2.17;86.36
31092;BME280;67728;53.122;12.776;2023-03-16T05:20:17;101258.28;;;-2.16;86.04
31092;BME280;67728;53.122;12.776;2023-03-16T05:21:49;101263.16;;;-2.20;85.26
31092;BME280;67728;53.122;12.776;2023-03-16T05:23:21;101262.22;;;-2.22;84.96
31092;BME280;67728;53.122;12.776;2023-03-16T05:24:53;101264.78;;;-2.22;84.64
31092;BME280;67728;53.122;12.776;2023-03-16T05:26:25;101259.16;;;-2.15;84.89
31092;BME280;67728;53.122;12.776;2023-03-16T05:27:57;101267.09;;;-2.27;85.54
31092;BME280;67728;53.122;12.776;2023-03-16T05:29:29;101266.50;;;-2.21;85.92
31092;BME280;67728;53.122;12.776;2023-03-16T05:31:01;101263.09;;;-2.22;84.58
31092;BME280;67728;53.122;12.776;2023-03-16T05:32:33;101263.91;;;-2.23;85.68
31092;BME280;67728;53.122;12.776;2023-03-16T05:34:05;101270.13;;;-2.16;85.19
31092;BME280;67728;53.122;12.776;2023-03-16T05:35:38;101268.31;;;-2.19;85.98
31092;BME280;67728;53.122;12.776;2023-03-16T05:37:10;101264.97;;;-2.18;86.41
31092;BME280;67728;53.122;12.776;2023-03-16T05:38:42;101279.63;;;-2.12;86.17
31092;BME280;67728;53.122;12.776;2023-03-16T05:40:15;101276.19;;;-2.13;86.07
31092;BME280;67728;53.122;12.776;2023-03-16T05:41:46;101282.28;;;-2.09;85.62
31092;BME280;67728;53.122;12.776;2023-03-16T05:43:18;101277.94;;;-2.12;85.58
31092;BME280;67728;53.122;12.776;2023-03-16T05:44:50;101284.50;;;-2.17;85.15
31092;BME280;67728;53.122;12.776;2023-03-16T05:46:21;101291.09;;;-2.20;85.14
31092;BME280;67728;53.122;12.776;2023-03-16T05:47:53;101287.66;;;-2.22;85.65
31092;BME280;67728;53.122;12.776;2023-03-16T05:49:25;101281.97;;;-2.17;86.42
31092;BME280;67728;53.122;12.776;2023-03-16T05:53:25;101289.84;;;-2.11;85.84
31092;BME280;67728;53.122;12.776;2023-03-16T05:54:58;101295.06;;;-2.08;85.67
31092;BME280;67728;53.122;12.776;2023-03-16T05:56:30;101289.13;;;-2.08;85.60
31092;BME280;67728;53.122;12.776;2023-03-16T05:58:02;101296.13;;;-2.03;84.97
31092;BME280;67728;53.122;12.776;2023-03-16T05:59:33;101292.78;;;-2.02;85.72
31092;BME280;67728;53.122;12.776;2023-03-16T06:01:05;101300.38;;;-2.03;85.47
31092;BME280;67728;53.122;12.776;2023-03-16T06:02:39;101298.06;;;-1.97;85.52
31092;BME280;67728;53.122;12.776;2023-03-16T06:04:11;101303.75;;;-2.03;84.86
31092;BME280;67728;53.122;12.776;2023-03-16T06:05:43;101296.34;;;-1.98;84.67
31092;BME280;67728;53.122;12.776;2023-03-16T06:07:15;101297.22;;;-1.98;85.00
31092;BME280;67728;53.122;12.776;2023-03-16T06:08:49;101293.22;;;-1.93;85.41
31092;BME280;67728;53.122;12.776;2023-03-16T06:10:21;101294.00;;;-1.94;85.08
31092;BME280;67728;53.122;12.776;2023-03-16T06:11:53;101291.78;;;-1.86;84.76
31092;BME280;67728;53.122;12.776;2023-03-16T06:13:25;101293.81;;;-1.79;85.10
31092;BME280;67728;53.122;12.776;2023-03-16T06:14:57;101299.94;;;-1.74;84.94
31092;BME280;67728;53.122;12.776;2023-03-16T06:16:28;101302.69;;;-1.69;84.67
31092;BME280;67728;53.122;12.776;2023-03-16T06:18:00;101310.59;;;-1.63;84.44
31092;BME280;67728;53.122;12.776;2023-03-16T06:19:30;101304.91;;;-1.77;83.95
31092;BME280;67728;53.122;12.776;2023-03-16T06:21:03;101305.50;;;-1.63;83.50
31092;BME280;67728;53.122;12.776;2023-03-16T06:22:34;101303.59;;;-1.48;84.09
31092;BME280;67728;53.122;12.776;2023-03-16T06:24:07;101302.22;;;-1.40;83.05
31092;BME280;67728;53.122;12.776;2023-03-16T06:25:39;101304.13;;;-1.36;83.41
31092;BME280;67728;53.122;12.776;2023-03-16T06:27:12;101305.16;;;-1.31;83.29
31092;BME280;67728;53.122;12.776;2023-03-16T06:28:44;101310.88;;;-1.37;83.14
31092;BME280;67728;53.122;12.776;2023-03-16T06:30:16;101309.25;;;-1.35;82.76
31092;BME280;67728;53.122;12.776;2023-03-16T06:31:48;101314.16;;;-1.39;82.12
31092;BME280;67728;53.122;12.776;2023-03-16T06:33:22;101311.19;;;-1.29;82.21
31092;BME280;67728;53.122;12.776;2023-03-16T06:34:53;101313.13;;;-1.24;82.49
31092;BME280;67728;53.122;12.776;2023-03-16T06:36:25;101306.47;;;-1.20;81.87
31092;BME280;67728;53.122;12.776;2023-03-16T06:37:57;101315.22;;;-1.13;82.49
31092;BME280;67728;53.122;12.776;2023-03-16T06:39:32;101317.28;;;-1.05;82.23
31092;BME280;67728;53.122;12.776;2023-03-16T06:41:03;101318.47;;;-0.97;82.39
31092;BME280;67728;53.122;12.776;2023-03-16T06:42:35;101316.13;;;-0.92;81.87
31092;BME280;67728;53.122;12.776;2023-03-16T06:44:07;101315.28;;;-0.91;81.94
31092;BME280;67728;53.122;12.776;2023-03-16T06:45:39;101320.69;;;-0.84;82.24
31092;BME280;67728;53.122;12.776;2023-03-16T06:47:11;101310.50;;;-0.84;81.27
31092;BME280;67728;53.122;12.776;2023-03-16T06:48:43;101322.56;;;-0.80;82.02
31092;BME280;67728;53.122;12.776;2023-03-16T06:52:37;101325.28;;;-0.75;81.64
31092;BME280;67728;53.122;12.776;2023-03-16T06:54:09;101334.91;;;-0.68;81.33
31092;BME280;67728;53.122;12.776;2023-03-16T06:55:42;101330.44;;;-0.74;80.66
31092;BME280;67728;53.122;12.776;2023-03-16T06:57:14;101322.31;;;-0.65;81.06
31092;BME280;67728;53.122;12.776;2023-03-16T06:58:45;101330.91;;;-0.62;80.87
31092;BME280;67728;53.122;12.776;2023-03-16T07:00:18;101335.34;;;-0.57;80.84
31092;BME280;67728;53.122;12.776;2023-03-16T07:01:50;101342.25;;;-0.53;80.96
31092;BME280;67728;53.122;12.776;2023-03-16T07:03:22;101341.84;;;-0.43;81.02
31092;BME280;67728;53.122;12.776;2023-03-16T07:04:54;101336.84;;;-0.40;80.59
31092;BME280;67728;53.122;12.776;2023-03-16T07:06:26;101330.31;;;-0.34;79.95
31092;BME280;67728;53.122;12.776;2023-03-16T07:08:01;101339.88;;;-0.28;80.34
31092;BME280;67728;53.122;12.776;2023-03-16T07:09:34;101334.94;;;-0.24;80.79
31092;BME280;67728;53.122;12.776;2023-03-16T07:11:13;101336.84;;;-0.18;80.10
31092;BME280;67728;53.122;12.776;2023-03-16T07:12:46;101340.41;;;-0.13;81.24
31092;BME280;67728;53.122;12.776;2023-03-16T07:14:19;101342.34;;;-0.08;79.96
31092;BME280;67728;53.122;12.776;2023-03-16T07:15:52;101345.91;;;-0.03;80.06
31092;BME280;67728;53.122;12.776;2023-03-16T07:17:24;101354.91;;;0.10;80.39
31092;BME280;67728;53.122;12.776;2023-03-16T07:18:57;101351.88;;;0.20;79.89
31092;BME280;67728;53.122;12.776;2023-03-16T07:20:28;101359.00;;;0.29;78.62
31092;BME280;67728;53.122;12.776;2023-03-16T07:22:02;101353.03;;;0.28;78.51
31092;BME280;67728;53.122;12.776;2023-03-16T07:23:35;101358.38;;;0.36;78.38
31092;BME280;67728;53.122;12.776;2023-03-16T07:25:10;101361.97;;;0.41;78.28
31092;BME280;67728;53.122;12.776;2023-03-16T07:26:45;101364.72;;;0.45;78.53
31092;BME280;67728;53.122;12.776;2023-03-16T07:28:17;101361.88;;;0.62;76.84
31092;BME280;67728;53.122;12.776;2023-03-16T07:29:50;101356.88;;;0.65;77.47
31092;BME280;67728;53.122;12.776;2023-03-16T07:31:24;101357.00;;;0.68;78.27
31092;BME280;67728;53.122;12.776;2023-03-16T07:32:56;101357.28;;;0.77;78.08
31092;BME280;67728;53.122;12.776;2023-03-16T07:34:28;101359.66;;;0.96;76.76
31092;BME280;67728;53.122;12.776;2023-03-16T07:36:00;101353.25;;;1.08;75.56
31092;BME280;67728;53.122;12.776;2023-03-16T07:37:33;101347.25;;;1.33;75.98
31092;BME280;67728;53.122;12.776;2023-03-16T07:39:07;101351.09;;;1.47;74.15
31092;BME280;67728;53.122;12.776;2023-03-16T07:40:43;101351.91;;;1.46;73.62
31092;BME280;67728;53.122;12.776;2023-03-16T07:42:16;101349.28;;;1.43;74.26
31092;BME280;67728;53.122;12.776;2023-03-16T07:43:49;101352.09;;;1.51;73.89
31092;BME280;67728;53.122;12.776;2023-03-16T07:45:20;101344.84;;;1.64;74.11
31092;BME280;67728;53.122;12.776;2023-03-16T07:46:52;101359.34;;;1.65;74.75
31092;BME280;67728;53.122;12.776;2023-03-16T07:48:24;101348.34;;;1.68;74.36
31092;BME280;67728;53.122;12.776;2023-03-16T07:49:56;101348.59;;;1.75;73.96
31092;BME280;67728;53.122;12.776;2023-03-16T07:51:29;101343.88;;;1.89;73.66
31092;BME280;67728;53.122;12.776;2023-03-16T07:53:01;101352.88;;;2.05;72.15
31092;BME280;67728;53.122;12.776;2023-03-16T07:54:35;101351.31;;;2.10;71.58
31092;BME280;67728;53.122;12.776;2023-03-16T07:56:07;101352.97;;;2.08;72.20
31092;BME280;67728;53.122;12.776;2023-03-16T07:57:40;101358.97;;;2.10;72.20
31092;BME280;67728;53.122;12.776;2023-03-16T07:59:17;101356.72;;;2.20;71.99
31092;BME280;67728;53.122;12.776;2023-03-16T08:00:50;101357.03;;;2.31;72.04
31092;BME280;67728;53.122;12.776;2023-03-16T08:02:21;101354.44;;;2.29;72.03
31092;BME280;67728;53.122;12.776;2023-03-16T08:03:53;101359.69;;;2.35;71.17